Time;durP1;ratioP1;P1;durP2;ratioP2;P2;SDS_P1;SDS_P2;PMS_P1;PMS_P2;Temp;Humidity;BMP_temperature;BMP_pressure;BME280_temperature;BME280_humidity;BME280_pressure;Samples;Min_cycle;Max_cycle;Signal;HPM_P1;HPM_P2
2021/07/26 00:01:16;;;;;;;25.50;14.30;;;;;;;;;;4985925;28;20045;-56
2021/07/26 00:03:42;;;;;;;23.13;14.60;;;;;;;;;;4982228;28;20167;-54
2021/07/26 00:06:09;;;;;;;22.50;14.85;;;;;;;;;;4986397;28;20993;-56
2021/07/26 00:08:35;;;;;;;21.92;13.77;;;;;;;;;;4985910;28;20042;-57
2021/07/26 00:11:01;;;;;;;22.17;13.85;;;;;;;;;;4988178;28;20038;-56
2021/07/26 00:13:27;;;;;;;23.80;14.27;;;;;;;;;;4987796;28;20059;-57
2021/07/26 00:15:53;;;;;;;20.83;14.38;;;;;;;;;;4988133;28;20038;-56
2021/07/26 00:18:19;;;;;;;26.20;14.23;;;;;;;;;;4990972;28;20053;-57
2021/07/26 00:20:44;;;;;;;21.13;13.65;;;;;;;;;;4988768;28;20133;-56
2021/07/26 00:23:10;;;;;;;24.30;14.60;;;;;;;;;;4989775;28;20042;-59
2021/07/26 00:25:36;;;;;;;22.10;13.98;;;;;;;;;;4988277;28;20053;-55
2021/07/26 00:28:02;;;;;;;22.08;14.93;;;;;;;;;;4990643;28;20577;-53
2021/07/26 00:30:28;;;;;;;24.88;15.48;;;;;;;;;;4988612;28;20037;-56
2021/07/26 00:32:54;;;;;;;25.30;16.20;;;;;;;;;;4987909;28;20506;-54
2021/07/26 00:35:20;;;;;;;22.92;14.70;;;;;;;;;;4987690;28;20080;-55
2021/07/26 00:37:45;;;;;;;22.70;14.90;;;;;;;;;;4990344;28;20052;-56
2021/07/26 00:40:11;;;;;;;24.23;14.23;;;;;;;;;;4989324;28;20057;-56
2021/07/26 00:42:37;;;;;;;22.48;14.98;;;;;;;;;;4988061;28;20167;-55
2021/07/26 00:45:04;;;;;;;25.55;14.98;;;;;;;;;;4991972;28;20466;-56
2021/07/26 00:47:29;;;;;;;25.05;15.60;;;;;;;;;;4992608;28;20046;-56
2021/07/26 00:49:55;;;;;;;25.58;15.80;;;;;;;;;;4994037;28;20691;-56
2021/07/26 00:52:22;;;;;;;25.92;15.25;;;;;;;;;;4992989;28;20442;-55
2021/07/26 00:54:47;;;;;;;30.08;15.30;;;;;;;;;;4993697;28;20042;-55
2021/07/26 00:57:13;;;;;;;29.63;16.60;;;;;;;;;;4991747;28;20040;-55
2021/07/26 00:59:39;;;;;;;25.83;15.13;;;;;;;;;;4992368;28;20045;-54
2021/07/26 01:02:05;;;;;;;23.50;15.60;;;;;;;;;;4991351;28;20795;-56
2021/07/26 01:04:31;;;;;;;26.48;16.30;;;;;;;;;;4991161;28;20169;-55
2021/07/26 01:06:57;;;;;;;27.10;15.95;;;;;;;;;;4991809;28;20045;-56
2021/07/26 01:09:23;;;;;;;23.33;14.93;;;;;;;;;;4991707;28;20046;-56
2021/07/26 01:11:49;;;;;;;20.90;13.80;;;;;;;;;;4993888;28;20039;-56
2021/07/26 01:14:15;;;;;;;24.05;15.30;;;;;;;;;;4990207;28;20219;-54
2021/07/26 01:16:42;;;;;;;23.63;15.65;;;;;;;;;;4992382;28;20065;-56
2021/07/26 01:19:07;;;;;;;22.70;15.32;;;;;;;;;;4993014;28;20125;-55
2021/07/26 01:21:33;;;;;;;22.13;15.18;;;;;;;;;;4991074;28;20103;-52
2021/07/26 01:24:01;;;;;;;20.52;13.85;;;;;;;;;;4991933;28;20041;-55
2021/07/26 01:26:27;;;;;;;24.73;15.35;;;;;;;;;;4991676;28;20049;-56
2021/07/26 01:28:55;;;;;;;26.33;15.63;;;;;;;;;;4992940;28;20485;-55
2021/07/26 01:31:21;;;;;;;24.08;15.15;;;;;;;;;;4991541;28;20167;-57
2021/07/26 01:33:47;;;;;;;22.45;14.38;;;;;;;;;;4992215;28;20042;-56
2021/07/26 01:36:14;;;;;;;25.35;14.60;;;;;;;;;;4993055;28;20053;-55
2021/07/26 01:38:40;;;;;;;25.90;15.07;;;;;;;;;;4992315;28;20478;-57
2021/07/26 01:41:11;;;;;;;24.33;15.15;;;;;;;;;;4992642;28;20443;-57
2021/07/26 01:43:50;;;;;;;27.30;16.05;;;;;;;;;;4989725;28;20038;-56
2021/07/26 01:46:16;;;;;;;23.75;14.77;;;;;;;;;;4990069;28;20056;-57
2021/07/26 01:48:47;;;;;;;24.58;15.38;;;;;;;;;;4987242;28;20058;-56
2021/07/26 01:51:17;;;;;;;24.20;15.15;;;;;;;;;;4990903;28;20045;-54
2021/07/26 01:53:44;;;;;;;23.92;14.98;;;;;;;;;;4988875;28;20038;-55
2021/07/26 01:56:11;;;;;;;21.27;14.25;;;;;;;;;;4993225;28;20047;-56
2021/07/26 01:58:36;;;;;;;24.75;14.43;;;;;;;;;;4989538;28;20053;-56
2021/07/26 02:01:02;;;;;;;21.25;13.95;;;;;;;;;;4991713;28;20968;-58
2021/07/26 02:03:29;;;;;;;27.30;15.35;;;;;;;;;;4990672;28;20034;-57
2021/07/26 02:05:55;;;;;;;25.83;16.08;;;;;;;;;;4990252;28;20049;-57
2021/07/26 02:08:21;;;;;;;27.73;15.90;;;;;;;;;;4990947;28;20049;-57
2021/07/26 02:10:47;;;;;;;25.13;15.40;;;;;;;;;;4991555;28;20042;-56
2021/07/26 02:13:12;;;;;;;28.50;15.65;;;;;;;;;;4992155;28;20073;-57
2021/07/26 02:15:39;;;;;;;28.42;15.43;;;;;;;;;;4989123;28;20069;-57
2021/07/26 02:18:05;;;;;;;23.90;15.35;;;;;;;;;;4991732;28;20053;-57
2021/07/26 02:20:31;;;;;;;26.80;16.52;;;;;;;;;;4991182;28;20841;-57
2021/07/26 02:22:57;;;;;;;25.65;15.50;;;;;;;;;;4991679;28;20064;-56
2021/07/26 02:25:22;;;;;;;27.92;16.70;;;;;;;;;;4989479;28;20046;-56
2021/07/26 02:27:48;;;;;;;22.73;14.90;;;;;;;;;;4990272;28;20060;-55
2021/07/26 02:30:14;;;;;;;28.42;16.77;;;;;;;;;;4991301;28;20589;-57
2021/07/26 02:32:40;;;;;;;29.70;16.00;;;;;;;;;;4989541;28;20043;-56
2021/07/26 02:35:06;;;;;;;27.05;15.60;;;;;;;;;;4992740;28;20049;-57
2021/07/26 02:37:32;;;;;;;26.67;15.77;;;;;;;;;;4991161;28;20091;-55
2021/07/26 02:39:58;;;;;;;28.00;15.43;;;;;;;;;;4987683;28;20175;-56
2021/07/26 02:42:24;;;;;;;25.98;15.95;;;;;;;;;;5001589;28;20049;-54
2021/07/26 02:44:49;;;;;;;27.55;16.17;;;;;;;;;;4989298;28;20086;-55
2021/07/26 02:47:15;;;;;;;27.42;16.10;;;;;;;;;;4991176;28;20037;-56
2021/07/26 02:49:41;;;;;;;31.60;16.08;;;;;;;;;;4989837;28;20042;-57
2021/07/26 02:52:07;;;;;;;28.33;15.82;;;;;;;;;;4991558;28;20045;-54
2021/07/26 02:54:33;;;;;;;28.23;16.65;;;;;;;;;;4989641;28;20038;-56
2021/07/26 02:56:59;;;;;;;26.70;16.40;;;;;;;;;;4991902;28;20048;-55
2021/07/26 02:59:25;;;;;;;28.80;16.92;;;;;;;;;;4989394;28;20041;-56
2021/07/26 03:01:51;;;;;;;28.33;16.70;;;;;;;;;;4989646;28;20039;-56
2021/07/26 03:04:18;;;;;;;38.42;15.70;;;;;;;;;;4989691;28;20431;-57
2021/07/26 03:06:43;;;;;;;28.88;15.73;;;;;;;;;;4989334;28;20038;-57
2021/07/26 03:09:09;;;;;;;37.20;20.98;;;;;;;;;;4989168;28;20042;-56
2021/07/26 03:11:36;;;;;;;25.10;15.65;;;;;;;;;;4989774;28;20034;-58
2021/07/26 03:14:02;;;;;;;26.05;15.45;;;;;;;;;;4991121;28;20073;-62
2021/07/26 03:16:28;;;;;;;29.92;15.27;;;;;;;;;;4991569;28;20507;-56
2021/07/26 03:18:54;;;;;;;28.20;16.58;;;;;;;;;;4990088;28;20124;-55
2021/07/26 03:21:19;;;;;;;28.63;17.05;;;;;;;;;;4989220;28;20065;-57
2021/07/26 03:23:45;;;;;;;29.65;16.30;;;;;;;;;;4989254;28;20052;-55
2021/07/26 03:26:12;;;;;;;26.85;16.58;;;;;;;;;;4989711;28;20519;-55
2021/07/26 03:28:38;;;;;;;30.02;16.08;;;;;;;;;;4989528;28;20038;-57
2021/07/26 03:31:04;;;;;;;36.15;16.63;;;;;;;;;;4988902;28;20068;-56
2021/07/26 03:33:29;;;;;;;31.95;17.08;;;;;;;;;;4987922;28;20486;-53
2021/07/26 03:35:55;;;;;;;28.23;16.98;;;;;;;;;;4990559;28;20046;-55
2021/07/26 03:38:22;;;;;;;29.20;16.48;;;;;;;;;;4991521;28;20052;-55
2021/07/26 03:40:49;;;;;;;27.35;17.45;;;;;;;;;;4989113;28;20053;-56
2021/07/26 03:43:15;;;;;;;30.55;16.67;;;;;;;;;;4988981;28;20216;-55
2021/07/26 03:45:41;;;;;;;29.73;16.17;;;;;;;;;;4987668;28;20046;-57
2021/07/26 03:48:07;;;;;;;31.00;16.10;;;;;;;;;;4988968;28;20037;-55
2021/07/26 03:50:32;;;;;;;31.65;15.40;;;;;;;;;;4985996;28;20034;-56
2021/07/26 03:52:58;;;;;;;27.45;15.48;;;;;;;;;;4984308;28;20061;-55
2021/07/26 03:55:35;;;;;;;25.52;14.90;;;;;;;;;;4983789;28;20101;-58
2021/07/26 03:58:03;;;;;;;27.17;14.75;;;;;;;;;;4988424;28;20501;-57
2021/07/26 04:00:30;;;;;;;22.70;13.07;;;;;;;;;;4989345;28;20066;-57
2021/07/26 04:03:09;;;;;;;27.13;13.30;;;;;;;;;;4990056;28;20064;-57
2021/07/26 04:08:05;;;;;;;23.85;13.85;;;;;;;;;;4988087;28;20104;-54
2021/07/26 04:10:31;;;;;;;24.17;13.82;;;;;;;;;;4989509;28;20061;-57
2021/07/26 04:12:57;;;;;;;26.42;13.70;;;;;;;;;;4988708;28;20046;-57
2021/07/26 04:15:22;;;;;;;22.65;13.52;;;;;;;;;;4986887;28;20049;-57
2021/07/26 04:17:48;;;;;;;25.45;14.18;;;;;;;;;;4990512;28;20061;-57
2021/07/26 04:20:14;;;;;;;26.02;13.60;;;;;;;;;;4989712;28;20287;-57
2021/07/26 04:22:40;;;;;;;24.02;13.48;;;;;;;;;;4988451;28;20104;-56
2021/07/26 04:25:06;;;;;;;24.85;14.32;;;;;;;;;;4987477;28;20144;-57
2021/07/26 04:27:35;;;;;;;23.80;13.93;;;;;;;;;;4987363;28;20034;-57
2021/07/26 04:30:01;;;;;;;26.42;13.95;;;;;;;;;;4990140;28;20066;-57
2021/07/26 04:32:27;;;;;;;27.60;13.00;;;;;;;;;;4988636;28;20368;-52
2021/07/26 04:34:52;;;;;;;26.67;14.70;;;;;;;;;;4987043;28;20046;-56
2021/07/26 04:37:18;;;;;;;20.80;12.65;;;;;;;;;;4988800;28;20562;-58
2021/07/26 04:39:44;;;;;;;22.88;13.07;;;;;;;;;;4991035;28;20035;-57
2021/07/26 04:42:10;;;;;;;23.75;12.73;;;;;;;;;;4992019;28;20049;-56
2021/07/26 04:44:36;;;;;;;23.63;12.88;;;;;;;;;;4988431;28;20181;-57
2021/07/26 04:47:03;;;;;;;26.10;13.32;;;;;;;;;;4988722;28;20046;-59
2021/07/26 04:49:29;;;;;;;26.75;12.48;;;;;;;;;;4986996;28;20403;-57
2021/07/26 04:51:55;;;;;;;23.45;12.57;;;;;;;;;;4988147;28;20042;-56
2021/07/26 04:54:20;;;;;;;21.58;12.38;;;;;;;;;;4986333;28;20077;-55
2021/07/26 04:56:46;;;;;;;26.30;13.30;;;;;;;;;;4988474;28;20042;-55
2021/07/26 04:59:12;;;;;;;21.55;12.73;;;;;;;;;;4987970;28;20113;-54
2021/07/26 05:01:38;;;;;;;24.80;12.25;;;;;;;;;;4987408;28;20092;-55
2021/07/26 05:04:04;;;;;;;22.30;10.93;;;;;;;;;;4988370;28;20061;-55
2021/07/26 05:06:29;;;;;;;23.02;9.80;;;;;;;;;;4988114;28;20057;-53
2021/07/26 05:08:55;;;;;;;25.75;10.55;;;;;;;;;;4987671;28;20125;-56
2021/07/26 05:11:22;;;;;;;17.65;9.20;;;;;;;;;;4986931;28;20081;-55
2021/07/26 05:13:48;;;;;;;21.17;10.00;;;;;;;;;;4986646;28;20038;-56
2021/07/26 05:16:13;;;;;;;16.55;7.97;;;;;;;;;;4988274;28;20045;-55
2021/07/26 05:18:39;;;;;;;16.42;8.52;;;;;;;;;;4989005;28;20049;-56
2021/07/26 05:21:05;;;;;;;14.40;7.55;;;;;;;;;;4988442;28;20034;-56
2021/07/26 05:23:31;;;;;;;15.23;7.63;;;;;;;;;;4987135;28;20069;-55
2021/07/26 05:25:56;;;;;;;12.82;6.95;;;;;;;;;;4988538;28;20415;-57
2021/07/26 05:28:22;;;;;;;15.65;6.82;;;;;;;;;;4989213;28;20045;-56
2021/07/26 05:30:48;;;;;;;12.65;6.68;;;;;;;;;;4990700;28;20037;-54
2021/07/26 05:33:14;;;;;;;10.35;5.97;;;;;;;;;;4990188;28;20108;-56
2021/07/26 05:35:41;;;;;;;16.95;6.72;;;;;;;;;;4991236;28;20124;-56
2021/07/26 05:38:07;;;;;;;13.25;5.95;;;;;;;;;;4991021;28;20072;-55
2021/07/26 05:40:32;;;;;;;10.18;5.78;;;;;;;;;;4990521;28;20046;-55
2021/07/26 05:42:58;;;;;;;11.60;5.68;;;;;;;;;;4992100;28;20057;-56
2021/07/26 05:45:24;;;;;;;11.40;4.72;;;;;;;;;;4989952;28;20137;-55
2021/07/26 05:47:50;;;;;;;11.05;5.05;;;;;;;;;;4991533;28;20035;-56
2021/07/26 05:50:17;;;;;;;10.93;5.20;;;;;;;;;;4990902;28;20030;-55
2021/07/26 05:52:43;;;;;;;12.00;5.43;;;;;;;;;;4990311;28;20042;-54
2021/07/26 05:55:09;;;;;;;10.57;4.10;;;;;;;;;;4989962;28;20049;-54
2021/07/26 05:57:37;;;;;;;12.43;4.97;;;;;;;;;;4991738;28;20046;-53
2021/07/26 06:00:09;;;;;;;9.95;4.10;;;;;;;;;;4989945;28;20046;-54
2021/07/26 06:02:35;;;;;;;10.95;4.72;;;;;;;;;;4988079;28;20042;-54
2021/07/26 06:05:00;;;;;;;10.82;4.75;;;;;;;;;;4987703;28;20049;-53
2021/07/26 06:07:26;;;;;;;11.18;3.92;;;;;;;;;;4988116;28;20180;-54
2021/07/26 06:09:52;;;;;;;7.88;4.45;;;;;;;;;;4989811;28;20046;-55
2021/07/26 06:12:18;;;;;;;9.23;4.45;;;;;;;;;;4991554;28;20054;-55
2021/07/26 06:14:43;;;;;;;12.02;4.53;;;;;;;;;;4986739;28;20046;-53
2021/07/26 06:17:09;;;;;;;9.35;3.33;;;;;;;;;;4992159;28;20511;-53
2021/07/26 06:19:35;;;;;;;12.82;5.10;;;;;;;;;;4989445;28;20033;-53
2021/07/26 06:22:01;;;;;;;12.05;4.70;;;;;;;;;;4989891;28;20152;-54
2021/07/26 06:24:27;;;;;;;9.55;3.80;;;;;;;;;;4990410;28;20149;-52
2021/07/26 06:26:55;;;;;;;20.25;6.18;;;;;;;;;;4990668;28;20069;-53
2021/07/26 06:29:21;;;;;;;17.35;4.95;;;;;;;;;;4989202;28;20092;-53
2021/07/26 06:31:48;;;;;;;10.77;4.82;;;;;;;;;;4990283;28;20049;-55
2021/07/26 06:34:14;;;;;;;14.90;5.00;;;;;;;;;;4990045;28;20479;-54
2021/07/26 06:36:40;;;;;;;8.88;3.85;;;;;;;;;;4991065;28;20046;-54
2021/07/26 06:39:06;;;;;;;14.18;5.18;;;;;;;;;;4991285;28;20041;-54
2021/07/26 06:41:31;;;;;;;8.18;4.10;;;;;;;;;;4988368;28;20106;-55
2021/07/26 06:43:57;;;;;;;14.38;4.75;;;;;;;;;;4990799;28;20551;-55
2021/07/26 06:46:23;;;;;;;12.90;4.45;;;;;;;;;;4989120;28;20979;-55
2021/07/26 06:48:49;;;;;;;16.90;4.88;;;;;;;;;;4990309;28;20068;-54
2021/07/26 06:51:15;;;;;;;13.05;4.65;;;;;;;;;;4990179;28;20522;-52
2021/07/26 06:53:41;;;;;;;10.90;4.40;;;;;;;;;;4988031;28;20121;-54
2021/07/26 06:56:08;;;;;;;10.98;4.95;;;;;;;;;;4988721;28;20053;-54
2021/07/26 06:58:34;;;;;;;10.63;4.35;;;;;;;;;;4989164;28;20131;-53
2021/07/26 07:01:04;;;;;;;13.50;5.05;;;;;;;;;;4987987;28;20104;-55
2021/07/26 07:03:30;;;;;;;9.73;5.03;;;;;;;;;;4985619;28;20073;-54
2021/07/26 07:06:02;;;;;;;9.98;4.57;;;;;;;;;;4989008;28;20054;-54
2021/07/26 07:08:28;;;;;;;10.25;3.60;;;;;;;;;;4988599;28;20499;-55
2021/07/26 07:11:05;;;;;;;12.02;5.35;;;;;;;;;;4989284;28;20042;-54
2021/07/26 07:13:31;;;;;;;14.70;5.55;;;;;;;;;;4988999;28;20046;-55
2021/07/26 07:15:57;;;;;;;11.60;4.88;;;;;;;;;;4990764;28;20082;-54
2021/07/26 07:18:23;;;;;;;8.52;4.75;;;;;;;;;;4987154;28;20168;-52
2021/07/26 07:20:48;;;;;;;8.95;3.85;;;;;;;;;;4989380;28;20042;-54
2021/07/26 07:23:14;;;;;;;6.28;3.20;;;;;;;;;;4988152;28;20045;-55
2021/07/26 07:25:40;;;;;;;11.20;4.65;;;;;;;;;;4988330;28;20061;-53
2021/07/26 07:28:06;;;;;;;14.90;5.00;;;;;;;;;;4989488;28;20037;-54
2021/07/26 07:30:31;;;;;;;11.82;5.70;;;;;;;;;;4986148;28;20054;-53
2021/07/26 07:33:01;;;;;;;9.75;4.78;;;;;;;;;;4988758;28;20824;-54
2021/07/26 07:35:27;;;;;;;10.43;5.32;;;;;;;;;;4987514;28;20034;-54
2021/07/26 07:37:53;;;;;;;7.65;3.97;;;;;;;;;;4989090;28;20065;-55
2021/07/26 07:40:19;;;;;;;14.25;4.82;;;;;;;;;;4988705;28;20056;-53
2021/07/26 07:42:45;;;;;;;16.35;5.13;;;;;;;;;;4988905;28;20045;-51
2021/07/26 07:45:11;;;;;;;8.75;4.55;;;;;;;;;;4987524;28;20046;-54
2021/07/26 07:47:38;;;;;;;10.15;4.00;;;;;;;;;;4987177;28;20041;-54
2021/07/26 07:50:05;;;;;;;10.25;4.10;;;;;;;;;;4988497;28;20177;-53
2021/07/26 07:52:30;;;;;;;9.80;4.45;;;;;;;;;;4987016;28;20240;-53
2021/07/26 07:54:56;;;;;;;10.55;4.07;;;;;;;;;;4986999;28;20458;-54
2021/07/26 07:57:24;;;;;;;11.23;5.03;;;;;;;;;;4988172;28;20057;-53
2021/07/26 07:59:50;;;;;;;8.88;4.75;;;;;;;;;;4988265;28;20144;-53
2021/07/26 08:02:17;;;;;;;13.43;5.90;;;;;;;;;;4989840;28;20073;-50
2021/07/26 08:04:43;;;;;;;9.68;4.78;;;;;;;;;;4988097;28;20089;-52
2021/07/26 08:07:09;;;;;;;10.93;5.65;;;;;;;;;;4990001;28;20047;-51
2021/07/26 08:09:35;;;;;;;10.25;5.03;;;;;;;;;;4990883;28;20153;-55
2021/07/26 08:12:00;;;;;;;8.02;5.03;;;;;;;;;;4988475;28;20038;-54
2021/07/26 08:14:26;;;;;;;7.88;4.28;;;;;;;;;;4987642;28;20671;-52
2021/07/26 08:16:52;;;;;;;11.80;4.88;;;;;;;;;;4989020;28;20082;-55
2021/07/26 08:19:18;;;;;;;10.57;4.68;;;;;;;;;;4989704;28;20054;-53
2021/07/26 08:21:44;;;;;;;10.25;4.68;;;;;;;;;;4990516;28;20521;-54
2021/07/26 08:24:10;;;;;;;11.73;5.38;;;;;;;;;;4988603;28;20046;-51
2021/07/26 08:26:36;;;;;;;12.85;5.43;;;;;;;;;;4988739;28;20146;-55
2021/07/26 08:29:01;;;;;;;12.07;5.82;;;;;;;;;;4989018;28;20049;-53
2021/07/26 08:31:27;;;;;;;12.52;5.53;;;;;;;;;;4989066;28;22068;-51
2021/07/26 08:33:53;;;;;;;10.20;5.35;;;;;;;;;;4988678;28;20038;-53
2021/07/26 08:36:19;;;;;;;11.73;5.32;;;;;;;;;;4989758;28;20046;-55
2021/07/26 08:38:44;;;;;;;10.32;5.72;;;;;;;;;;4991312;28;20545;-51
2021/07/26 08:41:10;;;;;;;10.48;5.05;;;;;;;;;;4992270;28;20055;-54
2021/07/26 08:43:36;;;;;;;11.25;5.47;;;;;;;;;;4988942;28;20447;-51
2021/07/26 08:46:02;;;;;;;14.65;5.95;;;;;;;;;;4988658;28;20550;-51
2021/07/26 08:48:31;;;;;;;10.40;5.57;;;;;;;;;;4989797;28;20034;-53
2021/07/26 08:50:58;;;;;;;8.93;4.60;;;;;;;;;;4992523;28;20122;-51
2021/07/26 08:53:24;;;;;;;10.35;5.22;;;;;;;;;;4989671;28;20053;-54
2021/07/26 08:55:50;;;;;;;9.93;5.05;;;;;;;;;;4992514;28;20394;-53
2021/07/26 08:58:16;;;;;;;9.98;5.10;;;;;;;;;;4993624;28;20547;-53
2021/07/26 09:00:42;;;;;;;11.02;5.55;;;;;;;;;;4991056;28;20197;-52
2021/07/26 09:03:08;;;;;;;12.43;5.25;;;;;;;;;;4987628;28;20087;-51
2021/07/26 09:05:34;;;;;;;9.40;4.90;;;;;;;;;;4991613;28;20511;-54
2021/07/26 09:08:02;;;;;;;10.30;5.25;;;;;;;;;;4994261;28;20164;-54
2021/07/26 09:10:29;;;;;;;12.32;6.05;;;;;;;;;;4992120;28;20034;-54
2021/07/26 09:12:56;;;;;;;9.93;5.25;;;;;;;;;;4991841;28;20134;-52
2021/07/26 09:15:24;;;;;;;10.52;5.63;;;;;;;;;;4991508;28;20046;-53
2021/07/26 09:17:50;;;;;;;13.70;5.93;;;;;;;;;;4992853;28;20041;-50
2021/07/26 09:20:17;;;;;;;12.07;5.50;;;;;;;;;;4993748;28;20054;-50
2021/07/26 09:22:43;;;;;;;9.95;4.90;;;;;;;;;;4993084;28;20061;-52
2021/07/26 09:25:20;;;;;;;13.15;5.85;;;;;;;;;;4992336;28;20567;-50
2021/07/26 09:27:59;;;;;;;10.35;5.32;;;;;;;;;;4993705;28;20216;-52
2021/07/26 09:30:26;;;;;;;11.32;5.57;;;;;;;;;;4992030;28;20046;-50
2021/07/26 09:32:52;;;;;;;11.45;5.03;;;;;;;;;;4994335;28;20041;-53
2021/07/26 09:35:22;;;;;;;11.95;6.07;;;;;;;;;;4992999;28;20392;-53
2021/07/26 09:37:55;;;;;;;10.88;4.75;;;;;;;;;;4992617;28;20053;-51
2021/07/26 09:40:21;;;;;;;;;;;;;;;;;;4993159;28;20060;-52
2021/07/26 09:42:47;;;;;;;11.20;4.80;;;;;;;;;;4993643;28;20005;-51
2021/07/26 09:45:23;;;;;;;11.73;5.40;;;;;;;;;;4992161;28;20414;-50
2021/07/26 09:48:04;;;;;;;10.00;4.78;;;;;;;;;;4991749;28;20061;-52
2021/07/26 09:50:34;;;;;;;8.48;4.53;;;;;;;;;;4991120;28;20339;-53
2021/07/26 09:53:26;;;;;;;9.07;4.82;;;;;;;;;;4989747;28;20407;-53
2021/07/26 09:55:53;;;;;;;10.43;4.88;;;;;;;;;;4990027;28;20065;-50
2021/07/26 09:58:19;;;;;;;12.43;5.28;;;;;;;;;;4991891;28;20121;-51
2021/07/26 10:00:46;;;;;;;10.10;4.72;;;;;;;;;;4992900;28;20069;-55
2021/07/26 10:03:13;;;;;;;9.48;4.47;;;;;;;;;;4991766;28;20411;-55
2021/07/26 10:05:41;;;;;;;9.20;4.38;;;;;;;;;;4991136;28;20043;-55
2021/07/26 10:08:07;;;;;;;10.10;4.78;;;;;;;;;;4990479;28;20046;-55
2021/07/26 10:10:40;;;;;;;11.90;5.07;;;;;;;;;;4990295;28;20076;-56
2021/07/26 10:13:07;;;;;;;10.50;5.47;;;;;;;;;;4990124;28;20088;-56
2021/07/26 10:15:34;;;;;;;8.73;4.88;;;;;;;;;;4990148;28;20053;-56
2021/07/26 10:18:00;;;;;;;8.82;4.03;;;;;;;;;;4992802;28;21197;-54
2021/07/26 10:20:27;;;;;;;10.30;4.25;;;;;;;;;;4992260;28;20049;-53
2021/07/26 10:22:55;;;;;;;11.27;4.80;;;;;;;;;;4992455;28;20045;-56
2021/07/26 10:25:30;;;;;;;10.38;5.13;;;;;;;;;;4991839;28;20077;-53
2021/07/26 10:27:58;;;;;;;14.15;5.15;;;;;;;;;;4991294;28;20402;-52
2021/07/26 10:30:30;;;;;;;8.63;4.65;;;;;;;;;;4991352;28;20556;-55
2021/07/26 10:33:02;;;;;;;10.68;5.10;;;;;;;;;;4990861;28;20065;-54
2021/07/26 10:35:35;;;;;;;9.73;4.82;;;;;;;;;;4991337;28;20129;-55
2021/07/26 10:38:00;;;;;;;12.05;4.90;;;;;;;;;;4991016;28;20076;-54
2021/07/26 10:40:30;;;;;;;9.38;4.65;;;;;;;;;;4989785;28;20500;-55
2021/07/26 10:43:03;;;;;;;10.30;4.88;;;;;;;;;;4991359;28;20586;-51
2021/07/26 10:45:29;;;;;;;;;;;;;;;;;;4991874;28;20084;-54
2021/07/26 10:48:13;;;;;;;11.90;4.90;;;;;;;;;;4991082;28;19922;-54
2021/07/26 10:50:39;;;;;;;10.60;5.22;;;;;;;;;;4989472;28;20109;-55
2021/07/26 10:53:05;;;;;;;9.63;4.85;;;;;;;;;;4990939;28;20041;-55
2021/07/26 10:55:49;;;;;;;10.52;4.60;;;;;;;;;;4990520;28;20046;-51
2021/07/26 10:58:35;;;;;;;11.60;4.38;;;;;;;;;;4990695;28;20066;-53
2021/07/26 11:01:19;;;;;;;13.57;4.63;;;;;;;;;;4986259;28;20372;-55
2021/07/26 11:03:45;;;;;;;9.70;4.72;;;;;;;;;;4994946;28;20077;-52
2021/07/26 11:06:11;;;;;;;10.07;4.78;;;;;;;;;;4993630;28;20171;-53
2021/07/26 11:08:37;;;;;;;11.63;5.05;;;;;;;;;;4996592;28;20058;-52
2021/07/26 11:11:02;;;;;;;9.00;4.85;;;;;;;;;;5010486;28;20047;-54
2021/07/26 11:13:44;;;;;;;9.55;4.95;;;;;;;;;;4990712;28;20050;-54
2021/07/26 11:16:10;;;;;;;14.60;4.90;;;;;;;;;;4989538;28;20573;-53
2021/07/26 11:18:40;;;;;;;12.02;5.28;;;;;;;;;;4989501;28;20046;-55
2021/07/26 11:21:06;;;;;;;11.95;5.10;;;;;;;;;;4992201;28;20434;-53
2021/07/26 11:23:35;;;;;;;10.45;4.60;;;;;;;;;;4990221;28;20046;-55
2021/07/26 11:26:02;;;;;;;11.35;4.90;;;;;;;;;;4988679;28;20050;-55
2021/07/26 11:28:34;;;;;;;9.52;4.90;;;;;;;;;;4989480;28;20038;-55
2021/07/26 11:31:01;;;;;;;11.52;5.38;;;;;;;;;;4991693;28;20141;-54
2021/07/26 11:33:27;;;;;;;11.05;4.95;;;;;;;;;;4989913;28;20044;-55
2021/07/26 11:35:53;;;;;;;11.55;5.05;;;;;;;;;;4990527;28;20045;-55
2021/07/26 11:38:19;;;;;;;12.73;4.82;;;;;;;;;;4989557;28;20038;-56
2021/07/26 11:40:45;;;;;;;13.57;5.15;;;;;;;;;;4990730;28;20057;-52
2021/07/26 11:43:11;;;;;;;12.10;5.13;;;;;;;;;;4992577;28;20061;-54
2021/07/26 11:45:37;;;;;;;10.73;4.57;;;;;;;;;;4988795;28;20053;-53
2021/07/26 11:48:06;;;;;;;9.65;4.60;;;;;;;;;;4989141;28;20042;-51
2021/07/26 11:50:37;;;;;;;11.35;5.28;;;;;;;;;;4988570;28;20137;-53
2021/07/26 11:53:03;;;;;;;11.27;5.60;;;;;;;;;;4989166;28;20114;-54
2021/07/26 11:55:29;;;;;;;11.25;4.95;;;;;;;;;;4988425;28;20056;-54
2021/07/26 11:57:59;;;;;;;12.68;5.35;;;;;;;;;;4989599;28;20561;-51
2021/07/26 12:00:26;;;;;;;11.15;5.47;;;;;;;;;;4990139;28;20053;-51
2021/07/26 12:02:52;;;;;;;7.72;3.97;;;;;;;;;;4988946;28;20434;-53
2021/07/26 12:05:18;;;;;;;10.52;5.03;;;;;;;;;;5000977;28;20141;-53
2021/07/26 12:07:45;;;;;;;11.90;5.30;;;;;;;;;;4990533;28;20064;-54
2021/07/26 12:10:15;;;;;;;18.25;5.53;;;;;;;;;;4990020;28;20045;-53
2021/07/26 12:12:49;;;;;;;13.88;5.07;;;;;;;;;;4987916;28;20034;-52
2021/07/26 12:15:25;;;;;;;12.30;5.18;;;;;;;;;;4988087;28;20041;-52
2021/07/26 12:18:09;;;;;;;11.70;5.60;;;;;;;;;;4988813;28;20514;-53
2021/07/26 12:20:36;;;;;;;10.10;5.20;;;;;;;;;;4989895;28;20038;-55
2021/07/26 12:23:11;;;;;;;14.15;5.93;;;;;;;;;;4991035;28;20368;-54
2021/07/26 12:25:47;;;;;;;13.50;4.85;;;;;;;;;;4988941;28;20054;-55
2021/07/26 12:28:14;;;;;;;13.40;5.60;;;;;;;;;;4988254;28;20133;-53
2021/07/26 12:30:43;;;;;;;17.30;6.45;;;;;;;;;;4988342;28;20070;-53
2021/07/26 12:33:11;;;;;;;19.33;5.78;;;;;;;;;;4988078;28;20089;-53
2021/07/26 12:35:37;;;;;;;14.57;6.05;;;;;;;;;;4986861;28;20045;-55
2021/07/26 12:38:16;;;;;;;18.27;5.80;;;;;;;;;;4988771;28;20053;-55
2021/07/26 12:40:43;;;;;;;12.35;5.75;;;;;;;;;;4992257;28;20064;-55
2021/07/26 12:43:11;;;;;;;12.85;6.07;;;;;;;;;;4994827;28;20057;-55
2021/07/26 12:45:41;;;;;;;12.48;6.10;;;;;;;;;;4994170;28;20136;-54
2021/07/26 12:48:11;;;;;;;16.13;5.45;;;;;;;;;;4995598;28;20053;-55
2021/07/26 12:50:40;;;;;;;13.13;5.60;;;;;;;;;;4991222;28;20103;-53
2021/07/26 12:53:06;;;;;;;16.40;5.85;;;;;;;;;;4992421;28;20109;-52
2021/07/26 12:55:32;;;;;;;10.10;5.40;;;;;;;;;;4991445;28;20070;-55
2021/07/26 12:57:58;;;;;;;14.52;6.22;;;;;;;;;;4992141;28;20037;-55
2021/07/26 13:00:23;;;;;;;14.95;5.65;;;;;;;;;;4990717;28;20066;-54
2021/07/26 13:02:49;;;;;;;12.98;5.63;;;;;;;;;;4992888;28;20038;-55
2021/07/26 13:05:16;;;;;;;16.35;5.25;;;;;;;;;;4993598;28;20049;-54
2021/07/26 13:07:42;;;;;;;10.57;5.40;;;;;;;;;;4993409;28;20060;-55
2021/07/26 13:10:08;;;;;;;10.93;5.32;;;;;;;;;;4991929;28;20037;-54
2021/07/26 13:12:34;;;;;;;13.57;5.55;;;;;;;;;;4991958;28;20046;-52
2021/07/26 13:15:02;;;;;;;14.45;5.13;;;;;;;;;;4991835;28;20050;-53
2021/07/26 13:17:28;;;;;;;10.20;5.15;;;;;;;;;;4991230;28;20143;-55
2021/07/26 13:19:54;;;;;;;11.27;5.45;;;;;;;;;;4994038;28;20817;-53
2021/07/26 13:22:21;;;;;;;14.05;5.28;;;;;;;;;;4992786;28;20037;-54
2021/07/26 13:24:47;;;;;;;11.65;5.30;;;;;;;;;;4992397;28;20073;-57
2021/07/26 13:27:12;;;;;;;9.07;4.90;;;;;;;;;;4992044;28;20129;-53
2021/07/26 13:29:38;;;;;;;11.15;5.32;;;;;;;;;;4990773;28;20491;-55
2021/07/26 13:32:05;;;;;;;12.40;5.30;;;;;;;;;;4990946;28;20082;-54
2021/07/26 13:34:31;;;;;;;13.60;4.72;;;;;;;;;;4990601;28;20038;-55
2021/07/26 13:36:57;;;;;;;12.00;5.50;;;;;;;;;;4992494;28;20034;-56
2021/07/26 13:39:23;;;;;;;11.65;5.47;;;;;;;;;;4992133;28;20046;-56
2021/07/26 13:41:52;;;;;;;11.48;4.97;;;;;;;;;;4993310;28;20129;-57
2021/07/26 13:44:18;;;;;;;11.15;5.22;;;;;;;;;;4991664;28;20042;-53
2021/07/26 13:46:44;;;;;;;10.98;5.03;;;;;;;;;;4990475;28;20050;-56
2021/07/26 13:49:11;;;;;;;10.60;4.90;;;;;;;;;;4989628;28;20202;-53
2021/07/26 13:51:37;;;;;;;10.73;5.53;;;;;;;;;;4991963;28;20400;-55
2021/07/26 13:54:02;;;;;;;12.07;5.30;;;;;;;;;;4991288;28;20038;-53
2021/07/26 13:56:28;;;;;;;9.65;5.18;;;;;;;;;;4990295;28;20812;-56
2021/07/26 13:58:54;;;;;;;10.65;5.28;;;;;;;;;;4991935;28;20490;-56
2021/07/26 14:01:20;;;;;;;9.52;5.20;;;;;;;;;;4989367;28;20045;-55
2021/07/26 14:03:46;;;;;;;11.05;5.78;;;;;;;;;;4992121;28;20031;-57
2021/07/26 14:06:12;;;;;;;12.38;5.40;;;;;;;;;;4992056;28;20059;-54
2021/07/26 14:08:38;;;;;;;12.73;4.68;;;;;;;;;;4990771;28;20044;-57
2021/07/26 14:11:04;;;;;;;16.33;5.18;;;;;;;;;;4990798;28;20129;-57
2021/07/26 14:13:30;;;;;;;10.60;4.63;;;;;;;;;;4990652;28;20056;-56
2021/07/26 14:15:55;;;;;;;11.27;5.30;;;;;;;;;;4991357;28;20034;-56
2021/07/26 14:18:21;;;;;;;9.55;4.63;;;;;;;;;;4991679;28;20053;-57
2021/07/26 14:20:47;;;;;;;9.02;4.65;;;;;;;;;;4992540;28;20067;-56
2021/07/26 14:23:13;;;;;;;8.48;4.43;;;;;;;;;;5003683;28;20126;-57
2021/07/26 14:25:39;;;;;;;9.95;5.20;;;;;;;;;;4990230;28;20052;-57
2021/07/26 14:28:05;;;;;;;9.43;4.70;;;;;;;;;;4989386;28;20039;-57
2021/07/26 14:30:31;;;;;;;12.57;5.03;;;;;;;;;;4989382;28;20072;-56